Terminal Aerodrome Forecast
Issued by NWS Grand Junction, CO

Home | Current Version | Previous Version | Text Only | Print | Product List | Glossary On
Versions: 1 2 3 4 5 6 7 8 9 10 11 12 13 14 15 16 17 18 19 20 21 22 23 24 25 26 27 28 29 30 31 32 33 34 35 36 37 38 39 40 41 42 43
000
FTUS45 KGJT 061736
TAFGJT
TAF
KGJT 061736Z 0618/0718 17005KT P6SM VCTS SCT040CB BKN060 BKN120
      TEMPO 0619/0621 -TSRA BKN040CB BKN080
     FM062100 26008KT P6SM VCTS SCT050CB BKN070
      TEMPO 0621/0623 -TSRA BKN045CB BKN080
     FM070200 13008KT P6SM BKN120
     FM070800 10006KT P6SM SCT150=

USA.gov is the U.S. government's official web portal to all federal, state and local government web resources and services.